createdAt,value
2023-07-31T00:00:19.017Z,73.84
2023-07-31T00:02:50.911Z,73.67
2023-07-31T00:05:23.133Z,73.31
2023-07-31T00:07:56.116Z,73.60
2023-07-31T00:10:27.883Z,73.77
2023-07-31T00:12:59.708Z,73.78
2023-07-31T00:15:31.567Z,73.36
2023-07-31T00:18:03.515Z,74.00
2023-07-31T00:20:35.379Z,73.76
2023-07-31T00:23:07.164Z,73.44
2023-07-31T00:25:38.914Z,74.20
2023-07-31T00:28:11.474Z,73.10
2023-07-31T00:30:43.317Z,73.70
2023-07-31T00:33:15.120Z,72.95
2023-07-31T00:35:46.920Z,73.01
2023-07-31T00:38:18.877Z,72.74
2023-07-31T00:40:50.771Z,73.16
2023-07-31T00:43:22.553Z,73.76
2023-07-31T00:45:54.448Z,73.53
2023-07-31T00:48:27.235Z,73.65
2023-07-31T00:50:59.126Z,73.24
2023-07-31T00:53:31.346Z,72.85
2023-07-31T00:56:03.337Z,72.62
2023-07-31T00:58:35.225Z,73.44
2023-07-31T01:01:06.998Z,73.29
2023-07-31T01:03:38.903Z,73.14
2023-07-31T01:06:35.784Z,73.01
2023-07-31T01:09:11.687Z,72.85
2023-07-31T01:11:56.782Z,72.62
2023-07-31T01:14:28.562Z,72.66
2023-07-31T01:17:00.448Z,72.59
2023-07-31T01:19:32.415Z,72.59
2023-07-31T01:22:36.599Z,72.69
2023-07-31T01:25:27.553Z,72.82
2023-07-31T01:28:21.238Z,73.11
2023-07-31T01:30:56.832Z,72.81
2023-07-31T01:33:29.752Z,73.27
2023-07-31T01:36:02.152Z,73.15
2023-07-31T01:38:34.066Z,73.67
2023-07-31T01:41:05.829Z,73.34
2023-07-31T01:43:37.638Z,73.51
2023-07-31T01:46:09.533Z,74.12
2023-07-31T01:48:41.388Z,73.77
2023-07-31T01:51:13.238Z,74.00
2023-07-31T01:53:45.031Z,74.51
2023-07-31T01:56:16.942Z,74.90
2023-07-31T01:58:48.841Z,74.34
2023-07-31T02:01:20.755Z,74.57
2023-07-31T02:03:52.617Z,75.16
2023-07-31T02:06:24.544Z,75.18
2023-07-31T02:08:56.382Z,75.01
2023-07-31T02:11:28.381Z,74.92
2023-07-31T02:14:00.195Z,75.14
2023-07-31T02:16:32.050Z,75.25
2023-07-31T02:19:03.981Z,75.67
2023-07-31T02:21:35.779Z,75.36
2023-07-31T02:24:07.586Z,75.99
2023-07-31T02:26:39.707Z,75.58
2023-07-31T02:29:11.622Z,75.32
2023-07-31T02:31:43.469Z,75.70
2023-07-31T02:34:15.323Z,75.92
2023-07-31T02:36:47.207Z,75.69
2023-07-31T02:39:19.016Z,76.08
2023-07-31T02:41:50.767Z,76.15
2023-07-31T02:44:22.707Z,76.32
2023-07-31T02:46:54.587Z,76.30
2023-07-31T02:49:26.418Z,76.39
2023-07-31T02:51:58.333Z,75.90
2023-07-31T02:54:30.152Z,75.90
2023-07-31T02:57:01.991Z,76.57
2023-07-31T02:59:33.828Z,76.85
2023-07-31T03:02:05.791Z,76.43
2023-07-31T03:04:37.548Z,76.22
2023-07-31T03:07:09.306Z,76.14
2023-07-31T03:09:41.161Z,76.61
2023-07-31T03:12:13.063Z,76.09
2023-07-31T03:14:44.856Z,76.36
2023-07-31T03:17:16.854Z,76.13
2023-07-31T03:19:48.696Z,75.41
2023-07-31T03:22:20.526Z,75.45
2023-07-31T03:24:52.563Z,74.82
2023-07-31T03:27:24.331Z,75.32
2023-07-31T03:29:56.149Z,74.85
2023-07-31T03:32:27.968Z,74.52
2023-07-31T03:35:00.227Z,74.64
2023-07-31T03:37:32.266Z,75.08
2023-07-31T03:40:04.347Z,74.75
2023-07-31T03:42:36.124Z,73.95
2023-07-31T03:45:08.833Z,73.88
2023-07-31T03:47:40.637Z,74.24
2023-07-31T03:50:12.729Z,74.27
2023-07-31T03:52:44.626Z,73.73
2023-07-31T03:55:16.464Z,73.99
2023-07-31T03:57:48.222Z,73.76
2023-07-31T04:00:20.203Z,73.50
2023-07-31T04:02:51.999Z,72.85
2023-07-31T04:05:23.899Z,73.43
2023-07-31T04:07:55.735Z,74.15
2023-07-31T04:10:27.504Z,73.63
2023-07-31T04:12:59.264Z,72.86
2023-07-31T04:15:31.102Z,73.18
2023-07-31T04:18:02.924Z,73.37
2023-07-31T04:20:34.731Z,73.09
2023-07-31T04:23:06.510Z,73.65
2023-07-31T04:25:38.369Z,73.73
2023-07-31T04:28:10.190Z,73.33
2023-07-31T04:30:43.638Z,73.27
2023-07-31T04:33:15.635Z,73.12
2023-07-31T04:35:54.860Z,73.00
2023-07-31T04:38:26.627Z,72.87
2023-07-31T04:40:58.381Z,73.06
2023-07-31T04:43:30.212Z,72.03
2023-07-31T04:46:02.224Z,71.63
2023-07-31T04:48:34.033Z,72.42
2023-07-31T04:51:06.051Z,71.94
2023-07-31T04:53:38.041Z,71.91
2023-07-31T04:56:10.076Z,71.35
2023-07-31T04:58:41.850Z,70.79
2023-07-31T05:01:13.744Z,70.21
2023-07-31T05:03:45.748Z,70.84
2023-07-31T05:06:17.636Z,70.27
2023-07-31T05:08:49.530Z,69.87
2023-07-31T05:11:21.268Z,69.27
2023-07-31T05:13:53.031Z,69.45
2023-07-31T05:16:24.875Z,69.32
2023-07-31T05:18:56.656Z,68.69
2023-07-31T05:21:28.405Z,68.62
2023-07-31T05:24:00.724Z,67.98
2023-07-31T05:26:32.606Z,68.43
2023-07-31T05:29:04.454Z,67.53
2023-07-31T05:31:36.250Z,67.48
2023-07-31T05:34:08.027Z,67.92
2023-07-31T05:36:40.001Z,66.83
2023-07-31T05:39:11.922Z,67.34
2023-07-31T05:41:43.723Z,67.38
2023-07-31T05:44:15.559Z,67.18
2023-07-31T05:46:47.343Z,67.20
2023-07-31T05:49:19.150Z,66.39
2023-07-31T05:51:51.011Z,66.68
2023-07-31T05:54:22.857Z,66.15
2023-07-31T05:56:54.669Z,66.22
2023-07-31T05:59:26.425Z,66.77
2023-07-31T06:01:58.451Z,66.44
2023-07-31T06:04:30.304Z,66.59
2023-07-31T06:07:02.706Z,66.37
2023-07-31T06:09:34.554Z,66.68
2023-07-31T06:12:06.620Z,66.47
2023-07-31T06:14:38.419Z,65.97
2023-07-31T06:17:10.263Z,66.24
2023-07-31T06:19:42.016Z,66.19
2023-07-31T06:22:13.865Z,66.33
2023-07-31T06:24:46.090Z,66.21
2023-07-31T06:27:17.887Z,65.70
2023-07-31T06:29:49.643Z,65.69
2023-07-31T06:32:21.612Z,65.61
2023-07-31T06:34:53.666Z,65.68
2023-07-31T06:37:25.496Z,66.53
2023-07-31T06:39:57.406Z,65.79
2023-07-31T06:42:29.162Z,65.55
2023-07-31T06:45:00.976Z,65.16
2023-07-31T06:47:33.470Z,65.66
2023-07-31T06:50:06.385Z,64.89
2023-07-31T06:52:38.202Z,65.36
2023-07-31T06:55:21.237Z,64.97
2023-07-31T06:57:55.264Z,65.73
2023-07-31T07:00:27.054Z,65.39
2023-07-31T07:02:58.854Z,65.14
2023-07-31T07:05:30.730Z,64.57
2023-07-31T07:08:02.726Z,64.93
2023-07-31T07:10:34.834Z,64.92
2023-07-31T07:13:06.609Z,64.79
2023-07-31T07:15:38.451Z,64.42
2023-07-31T07:18:12.017Z,64.29
2023-07-31T07:20:55.271Z,64.36
2023-07-31T07:23:27.712Z,64.11
2023-07-31T07:25:59.539Z,63.65
2023-07-31T07:28:31.488Z,64.15
2023-07-31T07:31:03.442Z,62.70
2023-07-31T07:33:35.338Z,61.98
2023-07-31T07:36:11.033Z,61.31
2023-07-31T07:38:43.637Z,61.46
2023-07-31T07:41:15.451Z,59.93
2023-07-31T07:43:47.452Z,59.95
2023-07-31T07:46:19.311Z,59.64
2023-07-31T07:48:51.131Z,59.90
2023-07-31T07:51:22.929Z,59.60
2023-07-31T07:53:55.150Z,60.31
2023-07-31T07:56:27.854Z,60.56
2023-07-31T07:58:59.599Z,61.12
2023-07-31T08:01:31.414Z,60.62
2023-07-31T08:04:05.991Z,59.80
2023-07-31T08:06:38.439Z,60.66
2023-07-31T08:09:10.690Z,60.50
2023-07-31T08:11:42.615Z,59.33
2023-07-31T08:14:14.895Z,57.27
2023-07-31T08:16:47.175Z,55.85
2023-07-31T08:19:19.497Z,54.75
2023-07-31T08:21:51.416Z,54.33
2023-07-31T08:24:23.227Z,54.61
2023-07-31T08:26:55.223Z,54.90
2023-07-31T08:29:26.971Z,54.89
2023-07-31T08:31:59.008Z,54.24
2023-07-31T08:34:30.829Z,54.22
2023-07-31T08:37:02.719Z,53.97
2023-07-31T08:39:34.486Z,54.67
2023-07-31T08:42:09.888Z,53.95
2023-07-31T08:44:42.805Z,54.19
2023-07-31T08:47:17.181Z,55.78
2023-07-31T08:49:49.897Z,55.58
2023-07-31T08:52:21.664Z,52.33
2023-07-31T08:54:53.462Z,51.20
2023-07-31T08:57:25.742Z,51.41
2023-07-31T08:59:59.002Z,51.18
2023-07-31T09:02:39.045Z,50.74
2023-07-31T09:05:12.415Z,48.98
2023-07-31T09:07:48.020Z,49.85
2023-07-31T09:10:19.807Z,50.26
2023-07-31T09:12:54.471Z,49.45
2023-07-31T09:15:36.769Z,48.45
2023-07-31T09:18:10.288Z,49.69
2023-07-31T09:20:42.111Z,49.13
2023-07-31T09:23:15.812Z,47.20
2023-07-31T09:25:47.980Z,47.76
2023-07-31T09:28:19.834Z,46.93
2023-07-31T09:30:53.072Z,47.82
2023-07-31T09:33:24.859Z,48.95
2023-07-31T09:35:56.651Z,46.77
2023-07-31T09:38:28.453Z,46.32
2023-07-31T09:41:00.848Z,45.10
2023-07-31T09:43:32.636Z,45.31
2023-07-31T09:46:04.533Z,45.76
2023-07-31T09:48:40.164Z,45.10
2023-07-31T09:51:11.943Z,45.37
2023-07-31T09:53:51.606Z,44.23
2023-07-31T09:56:24.737Z,43.00
2023-07-31T09:58:57.760Z,44.13
2023-07-31T10:01:29.629Z,45.09
2023-07-31T10:04:03.361Z,43.33
2023-07-31T10:06:36.662Z,45.71
2023-07-31T10:09:12.296Z,44.81
2023-07-31T10:11:52.368Z,46.76
2023-07-31T10:14:25.198Z,45.85
2023-07-31T10:16:58.650Z,46.06
2023-07-31T10:19:31.758Z,44.96
2023-07-31T10:22:04.720Z,44.15
2023-07-31T10:24:38.625Z,44.26
2023-07-31T10:27:11.510Z,45.26
2023-07-31T10:29:48.358Z,44.00
2023-07-31T10:32:21.829Z,43.81
2023-07-31T10:34:53.823Z,43.28
2023-07-31T10:37:25.978Z,42.59
2023-07-31T10:40:05.192Z,43.56
2023-07-31T10:42:40.398Z,43.47
2023-07-31T10:45:12.623Z,44.13
2023-07-31T10:47:46.453Z,42.85
2023-07-31T10:50:20.881Z,41.35
2023-07-31T10:52:56.092Z,42.83
2023-07-31T10:55:33.916Z,41.32
2023-07-31T10:58:12.868Z,43.25
2023-07-31T11:00:46.042Z,42.72
2023-07-31T11:03:19.906Z,44.04
2023-07-31T11:06:06.892Z,43.24
2023-07-31T11:08:46.859Z,42.01
2023-07-31T11:11:20.652Z,43.68
2023-07-31T11:13:54.916Z,41.16
2023-07-31T11:16:26.880Z,42.48
2023-07-31T11:18:58.676Z,42.03
2023-07-31T11:21:30.617Z,40.35
2023-07-31T11:24:02.433Z,40.77
2023-07-31T11:26:34.812Z,41.41
2023-07-31T11:29:12.835Z,41.99
2023-07-31T11:31:45.143Z,40.99
2023-07-31T11:34:18.773Z,40.38
2023-07-31T11:36:57.102Z,41.60
2023-07-31T11:39:29.021Z,40.10
2023-07-31T11:42:01.625Z,39.36
2023-07-31T11:44:49.018Z,39.03
2023-07-31T11:47:21.510Z,40.03
2023-07-31T11:49:53.343Z,41.18
2023-07-31T11:52:25.988Z,40.07
2023-07-31T11:54:58.708Z,41.84
2023-07-31T11:57:30.840Z,40.41
2023-07-31T12:00:04.129Z,39.39
2023-07-31T12:02:36.393Z,39.45
2023-07-31T12:05:12.947Z,40.03
2023-07-31T12:07:47.117Z,39.69
2023-07-31T12:10:33.598Z,38.47
2023-07-31T12:13:07.307Z,38.62
2023-07-31T12:15:44.180Z,38.13
2023-07-31T12:18:20.360Z,38.60
2023-07-31T12:20:57.905Z,39.37
2023-07-31T12:23:32.101Z,37.74
2023-07-31T12:26:10.774Z,37.79
2023-07-31T12:28:50.567Z,36.59
2023-07-31T12:31:23.921Z,36.95
2023-07-31T12:33:57.161Z,36.69
2023-07-31T12:36:30.142Z,35.38
2023-07-31T12:39:01.937Z,35.58
2023-07-31T12:41:33.753Z,35.70
2023-07-31T12:44:05.784Z,35.37
2023-07-31T12:46:40.929Z,35.02
2023-07-31T12:49:13.027Z,36.16
2023-07-31T12:51:44.802Z,35.79
2023-07-31T12:54:16.556Z,34.85
2023-07-31T12:56:48.359Z,36.34
2023-07-31T12:59:20.174Z,36.97
2023-07-31T13:01:52.004Z,36.71
2023-07-31T13:04:23.901Z,37.16
2023-07-31T13:06:56.218Z,36.47
2023-07-31T13:09:28.028Z,37.38
2023-07-31T13:11:59.787Z,37.15
2023-07-31T13:14:31.765Z,37.29
2023-07-31T13:17:03.685Z,37.75
2023-07-31T13:19:35.521Z,38.16
2023-07-31T13:22:07.270Z,40.60
2023-07-31T13:24:39.474Z,38.17
2023-07-31T13:27:11.341Z,37.69
2023-07-31T13:29:43.092Z,38.75
2023-07-31T13:32:14.846Z,39.07
2023-07-31T13:34:47.316Z,37.34
2023-07-31T13:37:19.135Z,38.34
2023-07-31T13:39:50.889Z,38.53
2023-07-31T13:42:23.384Z,38.97
2023-07-31T13:44:55.355Z,38.42
2023-07-31T13:47:27.237Z,39.07
2023-07-31T13:49:59.096Z,38.82
2023-07-31T13:52:30.982Z,37.79
2023-07-31T13:55:02.749Z,37.00
2023-07-31T13:57:34.799Z,40.03
2023-07-31T14:00:07.295Z,38.75
2023-07-31T14:02:39.222Z,38.34
2023-07-31T14:05:11.096Z,37.99
2023-07-31T14:07:43.141Z,38.82
2023-07-31T14:10:14.927Z,38.92
2023-07-31T14:12:46.833Z,36.67
2023-07-31T14:15:18.636Z,39.19
2023-07-31T14:17:50.571Z,38.91
2023-07-31T14:20:22.678Z,37.86
2023-07-31T14:22:54.742Z,37.83
2023-07-31T14:25:26.538Z,37.61
2023-07-31T14:27:58.409Z,38.94
2023-07-31T14:30:30.176Z,37.40
2023-07-31T14:33:03.686Z,36.61
2023-07-31T14:35:36.374Z,38.40
2023-07-31T14:38:08.166Z,37.32
2023-07-31T14:40:40.040Z,38.46
2023-07-31T14:43:12.013Z,37.15
2023-07-31T14:45:43.840Z,36.67
2023-07-31T14:48:15.885Z,37.81
2023-07-31T14:50:47.638Z,38.39
2023-07-31T14:53:19.425Z,38.33
2023-07-31T14:55:51.212Z,38.03
2023-07-31T14:58:23.179Z,38.30
2023-07-31T15:00:54.973Z,38.68
2023-07-31T15:03:27.803Z,39.11
2023-07-31T15:05:59.700Z,37.78
2023-07-31T15:08:31.444Z,40.07
2023-07-31T15:11:03.554Z,39.83
2023-07-31T15:13:35.365Z,39.32
2023-07-31T15:16:07.199Z,37.87
2023-07-31T15:18:39.040Z,37.82
2023-07-31T15:21:11.269Z,39.29
2023-07-31T15:23:43.031Z,37.61
2023-07-31T15:26:15.672Z,38.82
2023-07-31T15:28:56.757Z,39.06
2023-07-31T15:31:28.828Z,39.19
2023-07-31T15:34:00.639Z,39.41
2023-07-31T15:36:33.053Z,38.32
2023-07-31T15:39:04.872Z,38.99
2023-07-31T15:41:39.000Z,38.89
2023-07-31T15:44:10.830Z,39.71
2023-07-31T15:46:42.919Z,39.48
2023-07-31T15:49:15.864Z,39.09
2023-07-31T15:51:49.037Z,40.08
2023-07-31T15:54:21.348Z,38.33
2023-07-31T15:56:53.220Z,39.91
2023-07-31T15:59:25.000Z,38.38
2023-07-31T16:01:56.857Z,38.78
2023-07-31T16:04:28.758Z,39.04
2023-07-31T16:07:00.798Z,39.82
2023-07-31T16:09:32.690Z,39.09
2023-07-31T16:12:06.284Z,39.72
2023-07-31T16:14:38.294Z,39.84
2023-07-31T16:17:10.079Z,40.58
2023-07-31T16:19:41.836Z,41.14
2023-07-31T16:22:13.662Z,40.77
2023-07-31T16:24:45.517Z,42.31
2023-07-31T16:27:17.479Z,42.49
2023-07-31T16:29:49.670Z,41.29
2023-07-31T16:32:21.930Z,41.68
2023-07-31T16:34:53.832Z,41.32
2023-07-31T16:37:26.280Z,41.83
2023-07-31T16:39:58.079Z,41.71
2023-07-31T16:42:30.018Z,42.65
2023-07-31T16:45:01.835Z,42.12
2023-07-31T16:47:33.723Z,42.40
2023-07-31T16:50:05.897Z,43.55
2023-07-31T16:52:37.670Z,43.79
2023-07-31T16:55:09.557Z,44.55
2023-07-31T16:57:41.322Z,44.67
2023-07-31T17:00:13.591Z,45.57
2023-07-31T17:02:45.486Z,44.97
2023-07-31T17:05:17.382Z,45.48
2023-07-31T17:07:49.339Z,47.11
2023-07-31T17:10:21.155Z,46.83
2023-07-31T17:12:52.984Z,45.78
2023-07-31T17:15:25.058Z,46.42
2023-07-31T17:17:56.928Z,45.78
2023-07-31T17:20:28.849Z,46.35
2023-07-31T17:23:00.766Z,46.50
2023-07-31T17:25:32.532Z,45.99
2023-07-31T17:28:04.535Z,46.13
2023-07-31T17:30:36.503Z,47.85
2023-07-31T17:33:08.929Z,47.13
2023-07-31T17:35:40.751Z,46.94
2023-07-31T17:38:12.566Z,47.39
2023-07-31T17:40:44.334Z,47.25
2023-07-31T17:43:16.177Z,47.60
2023-07-31T17:45:48.425Z,47.29
2023-07-31T17:48:20.272Z,48.13
2023-07-31T17:50:53.462Z,48.65
2023-07-31T17:53:25.302Z,47.93
2023-07-31T17:55:57.090Z,50.43
2023-07-31T17:58:29.285Z,49.84
2023-07-31T18:01:01.125Z,50.41
2023-07-31T18:03:33.204Z,50.59
2023-07-31T18:06:05.151Z,50.11
2023-07-31T18:08:36.961Z,50.28
2023-07-31T18:11:08.913Z,51.27
2023-07-31T18:13:40.681Z,51.18
2023-07-31T18:16:12.559Z,51.43
2023-07-31T18:18:44.330Z,50.54
2023-07-31T18:21:16.121Z,51.74
2023-07-31T18:23:47.935Z,52.03
2023-07-31T18:26:19.693Z,51.44
2023-07-31T18:28:51.499Z,52.67
2023-07-31T18:31:24.571Z,52.20
2023-07-31T18:33:56.779Z,50.47
2023-07-31T18:39:00.272Z,52.15
2023-07-31T18:41:32.046Z,51.15
2023-07-31T18:44:04.032Z,50.36
2023-07-31T18:46:36.210Z,49.89
2023-07-31T18:49:08.209Z,49.67
2023-07-31T18:51:40.082Z,49.60
2023-07-31T18:54:11.909Z,49.73
2023-07-31T18:56:43.719Z,50.06
2023-07-31T18:59:15.542Z,49.72
2023-07-31T19:01:47.479Z,51.53
2023-07-31T19:04:19.326Z,49.99
2023-07-31T19:06:51.353Z,51.76
2023-07-31T19:09:30.774Z,51.84
2023-07-31T19:12:02.705Z,52.08
2023-07-31T19:14:35.640Z,53.50
2023-07-31T19:17:08.069Z,53.92
2023-07-31T19:19:39.940Z,54.38
2023-07-31T19:22:12.146Z,54.50
2023-07-31T19:24:45.221Z,56.11
2023-07-31T19:27:18.282Z,55.47
2023-07-31T19:29:50.095Z,56.36
2023-07-31T19:32:22.188Z,56.33
2023-07-31T19:34:54.520Z,56.61
2023-07-31T19:37:26.358Z,57.56
2023-07-31T19:39:58.379Z,57.93
2023-07-31T19:42:30.464Z,58.68
2023-07-31T19:45:05.669Z,59.55
2023-07-31T19:47:37.550Z,59.91
2023-07-31T19:50:09.570Z,59.95
2023-07-31T19:52:42.777Z,60.37
2023-07-31T19:55:14.643Z,60.63
2023-07-31T19:57:46.469Z,60.81
2023-07-31T20:00:18.480Z,60.76
2023-07-31T20:02:50.280Z,61.43
2023-07-31T20:05:22.228Z,61.71
2023-07-31T20:07:54.053Z,62.20
2023-07-31T20:10:25.922Z,61.89
2023-07-31T20:12:57.782Z,62.62
2023-07-31T20:15:29.627Z,62.85
2023-07-31T20:18:01.420Z,62.95
2023-07-31T20:20:33.666Z,62.87
2023-07-31T20:23:06.025Z,63.14
2023-07-31T20:25:37.895Z,63.02
2023-07-31T20:28:11.029Z,63.75
2023-07-31T20:30:44.396Z,63.10
2023-07-31T20:33:16.679Z,63.22
2023-07-31T20:35:48.438Z,64.31
2023-07-31T20:38:20.223Z,63.48
2023-07-31T20:40:53.344Z,63.59
2023-07-31T20:43:27.898Z,62.93
2023-07-31T20:45:59.804Z,63.11
2023-07-31T20:48:31.727Z,62.61
2023-07-31T20:51:03.670Z,62.34
2023-07-31T20:53:35.536Z,62.36
2023-07-31T20:56:07.334Z,62.13
2023-07-31T20:58:40.021Z,63.38
2023-07-31T21:01:11.825Z,62.00
2023-07-31T21:03:43.818Z,62.55
2023-07-31T21:06:17.867Z,62.40
2023-07-31T21:08:49.805Z,60.68
2023-07-31T21:11:22.064Z,62.29
2023-07-31T21:13:53.818Z,61.77
2023-07-31T21:16:26.074Z,62.25
2023-07-31T21:18:58.868Z,62.11
2023-07-31T21:21:30.662Z,62.43
2023-07-31T21:24:02.463Z,62.48
2023-07-31T21:26:34.337Z,62.99
2023-07-31T21:29:06.243Z,63.39
2023-07-31T21:31:38.137Z,63.30
2023-07-31T21:34:10.107Z,63.48
2023-07-31T21:36:42.190Z,63.94
2023-07-31T21:39:15.453Z,63.75
2023-07-31T21:41:47.417Z,63.96
2023-07-31T21:44:19.441Z,63.86
2023-07-31T21:46:51.210Z,64.18
2023-07-31T21:49:23.020Z,64.50
2023-07-31T21:51:54.934Z,64.62
2023-07-31T21:54:26.703Z,64.31
2023-07-31T21:56:58.487Z,65.37
2023-07-31T21:59:30.769Z,65.43
2023-07-31T22:02:02.720Z,65.29
2023-07-31T22:04:35.402Z,64.55
2023-07-31T22:07:07.217Z,64.07
2023-07-31T22:09:39.195Z,65.16
2023-07-31T22:12:11.095Z,64.91
2023-07-31T22:14:43.057Z,64.89
2023-07-31T22:17:14.969Z,65.11
2023-07-31T22:19:47.429Z,65.52
2023-07-31T22:22:19.238Z,65.76
2023-07-31T22:24:51.178Z,66.52
2023-07-31T22:27:23.424Z,66.21
2023-07-31T22:29:55.185Z,66.89
2023-07-31T22:32:27.014Z,67.44
2023-07-31T22:34:58.845Z,67.34
2023-07-31T22:37:30.622Z,67.15
2023-07-31T22:40:02.395Z,67.61
2023-07-31T22:42:34.612Z,67.42
2023-07-31T22:45:06.816Z,67.20
2023-07-31T22:47:41.142Z,67.08
2023-07-31T22:50:13.321Z,67.50
2023-07-31T22:52:45.263Z,66.92
2023-07-31T22:55:17.109Z,66.39
2023-07-31T22:57:49.127Z,66.23
2023-07-31T23:00:20.995Z,66.00
2023-07-31T23:02:52.783Z,64.73
2023-07-31T23:05:25.240Z,64.78
2023-07-31T23:07:57.174Z,64.89
2023-07-31T23:10:31.602Z,64.56
2023-07-31T23:13:03.633Z,64.15
2023-07-31T23:15:35.716Z,64.18
2023-07-31T23:18:09.510Z,63.67
2023-07-31T23:20:41.782Z,63.65
2023-07-31T23:23:13.585Z,63.59
2023-07-31T23:25:48.710Z,63.54
2023-07-31T23:28:21.581Z,63.18
2023-07-31T23:30:53.417Z,63.29
2023-07-31T23:33:25.336Z,62.94
2023-07-31T23:35:57.171Z,63.67
2023-07-31T23:38:28.953Z,63.34
2023-07-31T23:41:00.753Z,63.49
2023-07-31T23:43:32.524Z,63.46
2023-07-31T23:46:04.524Z,63.29
2023-07-31T23:48:36.319Z,62.86
2023-07-31T23:51:08.102Z,62.83
2023-07-31T23:53:40.016Z,62.90
2023-07-31T23:56:11.879Z,63.00
2023-07-31T23:58:44.478Z,62.54
